Decoded Metar for KPSF (PITTSFIELD in MA, USA) (IATA:PSF) | Meteo·Mobile Aviation Weather
aviador You're here:

KPSF Decoded Metar

PITTSFIELD in MA, USA
Report Time2019-10-19 22:54:00
UTC Time2019-10-19 23:15:25
Flight Rules vfr VFR
Wind210° at 03 kt
W.Decomp.*RWY 26: 2.5 kt HW 1.7 kt LCW
RWY 14: 0.3 kt HW 3.0 kt RCW
Visibility9999 m
Phenomena:N/A
Clouds:N/A
Expected CloudBase > 2,400 ft AGL from Temp-Dew spread
CeilingNone
Temp07°C (ISA -6)
Dew Point01°C (66% RH)
AAT4.1°C
QNH1016 hPa
Density Alt476 ft
Elevation1,165 ft
Report Wrong Elevation
Raw Report
KPSF 192254Z AUTO 21003KT 10SM CLR 07/01 A3000 RMK AO2 SLP162
T00670006=

Extra information for KPSF:More info

Metar Taf Metar & Taf Last 4 Metars F.Rules Stats Wind Profile Meteogram Temp Stats Airport Information Weather charts Add Link Nearby VenuesMetar ALERT Operation Metar Decoded Social comments

AIRNAV info for KPSF